TAIP52 YSNW-YSNW
Flight info
| Callsign | TAIP52 |
|---|---|
| Flight time | 1h 23m |
| Altitude | 7000 |
| Route | 3506S15020E 3520S15018E 3529S15008E 3543S15002E 3533S14951E 3524S14954E 3514S15006E 3504S15017E DCT 3455S15023E |
| Aircraft | EC35/L-SDFGRY/C |
Departure
| Time | 2026-05-07 04:34 |
|---|---|
| Airport | Naval Air Station Nowra - HMAS Albatross (YSNW) |
Arrival
| Time | 2026-05-07 05:57 |
|---|---|
| Airport | Naval Air Station Nowra - HMAS Albatross (YSNW) |
| Time | Latitude | Longitude | Altitude | Speed | Heading |
|---|---|---|---|---|---|
| 2026-05-07 04:16 | -34.94562 | 150.54660 | 367 ft | 0 kts | 334° |
| 2026-05-07 04:22 | -34.94559 | 150.54664 | 372 ft | 1 kts | 330° |
| 2026-05-07 04:22 | -34.94562 | 150.54668 | 371 ft | 1 kts | 328° |
| 2026-05-07 04:23 | -34.94561 | 150.54671 | 372 ft | 1 kts | 327° |
| 2026-05-07 04:23 | -34.94560 | 150.54673 | 373 ft | 1 kts | 327° |
| 2026-05-07 04:23 | -34.94551 | 150.54671 | 374 ft | 3 kts | 316° |
| 2026-05-07 04:23 | -34.94536 | 150.54659 | 376 ft | 3 kts | 290° |
| 2026-05-07 04:24 | -34.94539 | 150.54625 | 376 ft | 5 kts | 249° |
| 2026-05-07 04:24 | -34.94556 | 150.54580 | 372 ft | 5 kts | 231° |
| 2026-05-07 04:24 | -34.94612 | 150.54601 | 375 ft | 14 kts | 164° |
| 2026-05-07 04:24 | -34.94720 | 150.54659 | 371 ft | 18 kts | 161° |
| 2026-05-07 04:25 | -34.94814 | 150.54712 | 365 ft | 11 kts | 144° |
| 2026-05-07 04:25 | -34.94876 | 150.54789 | 363 ft | 12 kts | 131° |
| 2026-05-07 04:25 | -34.94918 | 150.54785 | 390 ft | 15 kts | 255° |
| 2026-05-07 04:25 | -34.94912 | 150.54628 | 379 ft | 17 kts | 272° |
| 2026-05-07 04:26 | -34.94910 | 150.54547 | 363 ft | 4 kts | 275° |
| 2026-05-07 04:26 | -34.94911 | 150.54528 | 362 ft | 1 kts | 280° |
| 2026-05-07 04:26 | -34.94908 | 150.54528 | 371 ft | 0 kts | 280° |
| 2026-05-07 04:26 | -34.94909 | 150.54525 | 364 ft | 0 kts | 281° |
| 2026-05-07 04:27 | -34.94909 | 150.54526 | 366 ft | 0 kts | 277° |
| 2026-05-07 04:27 | -34.94909 | 150.54524 | 371 ft | 0 kts | 277° |
| 2026-05-07 04:27 | -34.94908 | 150.54515 | 369 ft | 1 kts | 277° |
| 2026-05-07 04:27 | -34.94908 | 150.54508 | 371 ft | 1 kts | 278° |
| 2026-05-07 04:28 | -34.94908 | 150.54502 | 370 ft | 1 kts | 280° |
| 2026-05-07 04:28 | -34.94908 | 150.54506 | 371 ft | 0 kts | 279° |
| 2026-05-07 04:28 | -34.94907 | 150.54504 | 370 ft | 1 kts | 277° |
| 2026-05-07 04:28 | -34.94908 | 150.54504 | 369 ft | 0 kts | 279° |
| 2026-05-07 04:29 | -34.94908 | 150.54503 | 369 ft | 0 kts | 280° |
| 2026-05-07 04:29 | -34.94908 | 150.54505 | 371 ft | 0 kts | 279° |
| 2026-05-07 04:29 | -34.94908 | 150.54498 | 371 ft | 1 kts | 279° |
| 2026-05-07 04:29 | -34.94908 | 150.54488 | 368 ft | 1 kts | 282° |
| 2026-05-07 04:30 | -34.94907 | 150.54491 | 369 ft | 0 kts | 282° |
| 2026-05-07 04:30 | -34.94907 | 150.54493 | 371 ft | 0 kts | 281° |
| 2026-05-07 04:30 | -34.94908 | 150.54491 | 368 ft | 0 kts | 281° |
| 2026-05-07 04:30 | -34.94908 | 150.54490 | 367 ft | 0 kts | 282° |
| 2026-05-07 04:31 | -34.94907 | 150.54487 | 367 ft | 0 kts | 283° |
| 2026-05-07 04:31 | -34.94908 | 150.54484 | 368 ft | 0 kts | 281° |
| 2026-05-07 04:31 | -34.94904 | 150.54460 | 384 ft | 14 kts | 279° |
| 2026-05-07 04:31 | -34.94870 | 150.54087 | 490 ft | 65 kts | 271° |
| 2026-05-07 04:32 | -34.94828 | 150.53555 | 716 ft | 59 kts | 268° |
| 2026-05-07 04:32 | -34.94846 | 150.53088 | 929 ft | 53 kts | 246° |
| 2026-05-07 04:32 | -34.95096 | 150.52775 | 1090 ft | 50 kts | 232° |
| 2026-05-07 04:32 | -34.95323 | 150.52473 | 1299 ft | 48 kts | 231° |
| 2026-05-07 04:33 | -34.95553 | 150.52196 | 1516 ft | 45 kts | 232° |
| 2026-05-07 04:33 | -34.95770 | 150.51926 | 1693 ft | 44 kts | 231° |
| 2026-05-07 04:33 | -34.95987 | 150.51665 | 1902 ft | 44 kts | 230° |
| 2026-05-07 04:33 | -34.96196 | 150.51405 | 2120 ft | 42 kts | 232° |
| 2026-05-07 04:34 | -34.96394 | 150.51149 | 2332 ft | 41 kts | 232° |
| 2026-05-07 04:34 | -34.96635 | 150.50829 | 2305 ft | 68 kts | 231° |
| 2026-05-07 04:34 | -34.97000 | 150.50341 | 2323 ft | 78 kts | 229° |
| 2026-05-07 04:34 | -34.97372 | 150.49880 | 2313 ft | 75 kts | 227° |
| 2026-05-07 04:35 | -34.97748 | 150.49438 | 2302 ft | 75 kts | 227° |
| 2026-05-07 04:35 | -34.98123 | 150.48987 | 2304 ft | 76 kts | 227° |
| 2026-05-07 04:35 | -34.98501 | 150.48531 | 2306 ft | 76 kts | 227° |
| 2026-05-07 04:35 | -34.98878 | 150.48075 | 2304 ft | 77 kts | 227° |
| 2026-05-07 04:36 | -34.99270 | 150.47624 | 2307 ft | 77 kts | 227° |
| 2026-05-07 04:36 | -34.99662 | 150.47180 | 2306 ft | 76 kts | 227° |
| 2026-05-07 04:36 | -35.00045 | 150.46739 | 2312 ft | 76 kts | 226° |
| 2026-05-07 04:36 | -35.00423 | 150.46295 | 2294 ft | 75 kts | 227° |
| 2026-05-07 04:37 | -35.00800 | 150.45853 | 2286 ft | 77 kts | 229° |
| 2026-05-07 04:37 | -35.01225 | 150.45430 | 2296 ft | 79 kts | 227° |
| 2026-05-07 04:37 | -35.01656 | 150.45024 | 2296 ft | 78 kts | 227° |
| 2026-05-07 04:37 | -35.02072 | 150.44581 | 2299 ft | 81 kts | 229° |
| 2026-05-07 04:38 | -35.02463 | 150.44100 | 2301 ft | 79 kts | 230° |
| 2026-05-07 04:38 | -35.02844 | 150.43618 | 2294 ft | 80 kts | 230° |
| 2026-05-07 04:38 | -35.03278 | 150.43174 | 2296 ft | 84 kts | 221° |
| 2026-05-07 04:38 | -35.03769 | 150.42792 | 2303 ft | 85 kts | 219° |
| 2026-05-07 04:39 | -35.04262 | 150.42393 | 2298 ft | 85 kts | 224° |
| 2026-05-07 04:39 | -35.04708 | 150.41918 | 2303 ft | 82 kts | 226° |
| 2026-05-07 04:39 | -35.05123 | 150.41461 | 2309 ft | 80 kts | 227° |
| 2026-05-07 04:39 | -35.05526 | 150.41012 | 2306 ft | 76 kts | 227° |
| 2026-05-07 04:40 | -35.05907 | 150.40543 | 2304 ft | 79 kts | 229° |
| 2026-05-07 04:40 | -35.06279 | 150.40067 | 2308 ft | 78 kts | 229° |
| 2026-05-07 04:40 | -35.06658 | 150.39597 | 2302 ft | 78 kts | 229° |
| 2026-05-07 04:40 | -35.07046 | 150.39080 | 2308 ft | 84 kts | 231° |
| 2026-05-07 04:41 | -35.07437 | 150.38569 | 2317 ft | 77 kts | 230° |
| 2026-05-07 04:41 | -35.07785 | 150.38124 | 2307 ft | 72 kts | 230° |
| 2026-05-07 04:41 | -35.08165 | 150.37645 | 2307 ft | 83 kts | 229° |
| 2026-05-07 04:41 | -35.08550 | 150.37156 | 2308 ft | 77 kts | 229° |
| 2026-05-07 04:42 | -35.08922 | 150.36682 | 2236 ft | 79 kts | 229° |
| 2026-05-07 04:42 | -35.09311 | 150.36222 | 2205 ft | 75 kts | 228° |
| 2026-05-07 04:42 | -35.09686 | 150.35757 | 2202 ft | 79 kts | 228° |
| 2026-05-07 04:42 | -35.10064 | 150.35276 | 1969 ft | 81 kts | 230° |
| 2026-05-07 04:43 | -35.10449 | 150.34810 | 2074 ft | 78 kts | 230° |
| 2026-05-07 04:43 | -35.10831 | 150.34345 | 2166 ft | 83 kts | 230° |
| 2026-05-07 04:43 | -35.11296 | 150.33857 | 2212 ft | 89 kts | 211° |
| 2026-05-07 04:43 | -35.11913 | 150.33675 | 2204 ft | 93 kts | 198° |
| 2026-05-07 04:44 | -35.12564 | 150.33571 | 2215 ft | 94 kts | 196° |
| 2026-05-07 04:44 | -35.13189 | 150.33496 | 2228 ft | 89 kts | 197° |
| 2026-05-07 04:44 | -35.13794 | 150.33449 | 2200 ft | 85 kts | 197° |
| 2026-05-07 04:44 | -35.14404 | 150.33317 | 2208 ft | 95 kts | 200° |
| 2026-05-07 04:45 | -35.15046 | 150.33159 | 2299 ft | 89 kts | 200° |
| 2026-05-07 04:45 | -35.15659 | 150.33055 | 2368 ft | 92 kts | 200° |
| 2026-05-07 04:45 | -35.16282 | 150.32976 | 2433 ft | 90 kts | 199° |
| 2026-05-07 04:45 | -35.16906 | 150.32883 | 2537 ft | 91 kts | 199° |
| 2026-05-07 04:46 | -35.17546 | 150.32753 | 2547 ft | 96 kts | 200° |
| 2026-05-07 04:46 | -35.18166 | 150.32632 | 2325 ft | 89 kts | 200° |
| 2026-05-07 04:46 | -35.18782 | 150.32520 | 2123 ft | 90 kts | 198° |
| 2026-05-07 04:46 | -35.19419 | 150.32430 | 2096 ft | 95 kts | 198° |
| 2026-05-07 04:47 | -35.20074 | 150.32337 | 2109 ft | 95 kts | 197° |
| 2026-05-07 04:47 | -35.20699 | 150.32247 | 2045 ft | 89 kts | 197° |
| 2026-05-07 04:47 | -35.21335 | 150.32170 | 1955 ft | 94 kts | 198° |
| 2026-05-07 04:47 | -35.21996 | 150.32052 | 1980 ft | 94 kts | 198° |
| 2026-05-07 04:48 | -35.22610 | 150.31964 | 2033 ft | 83 kts | 199° |
| 2026-05-07 04:48 | -35.23174 | 150.31923 | 1953 ft | 81 kts | 199° |
| 2026-05-07 04:48 | -35.23748 | 150.31859 | 2075 ft | 85 kts | 201° |
| 2026-05-07 04:48 | -35.24352 | 150.31763 | 2221 ft | 88 kts | 201° |
| 2026-05-07 04:49 | -35.24948 | 150.31654 | 2187 ft | 86 kts | 199° |
| 2026-05-07 04:49 | -35.25540 | 150.31528 | 2106 ft | 87 kts | 201° |
| 2026-05-07 04:49 | -35.26146 | 150.31412 | 2107 ft | 90 kts | 200° |
| 2026-05-07 04:49 | -35.26777 | 150.31269 | 2115 ft | 93 kts | 200° |
| 2026-05-07 04:50 | -35.27392 | 150.31135 | 2122 ft | 86 kts | 199° |
| 2026-05-07 04:50 | -35.27999 | 150.31009 | 2110 ft | 91 kts | 200° |
| 2026-05-07 04:50 | -35.28619 | 150.30876 | 2110 ft | 93 kts | 200° |
| 2026-05-07 04:50 | -35.29283 | 150.30721 | 2083 ft | 99 kts | 200° |
| 2026-05-07 04:51 | -35.29945 | 150.30607 | 1737 ft | 92 kts | 196° |
| 2026-05-07 04:51 | -35.30569 | 150.30493 | 1348 ft | 93 kts | 198° |
| 2026-05-07 04:51 | -35.31201 | 150.30358 | 1085 ft | 95 kts | 198° |
| 2026-05-07 04:51 | -35.31869 | 150.30175 | 1063 ft | 99 kts | 199° |
| 2026-05-07 04:52 | -35.32499 | 150.29991 | 1214 ft | 88 kts | 199° |
| 2026-05-07 04:52 | -35.33092 | 150.29820 | 1168 ft | 92 kts | 200° |
| 2026-05-07 04:52 | -35.33739 | 150.29677 | 1174 ft | 95 kts | 193° |
| 2026-05-07 04:52 | -35.34325 | 150.29318 | 1155 ft | 95 kts | 219° |
| 2026-05-07 04:53 | -35.34827 | 150.28832 | 1261 ft | 86 kts | 221° |
| 2026-05-07 04:53 | -35.35245 | 150.28393 | 1388 ft | 82 kts | 221° |
| 2026-05-07 04:53 | -35.35707 | 150.27930 | 1518 ft | 89 kts | 222° |
| 2026-05-07 04:53 | -35.36182 | 150.27427 | 1543 ft | 89 kts | 222° |
| 2026-05-07 04:54 | -35.36626 | 150.26978 | 1172 ft | 74 kts | 221° |
| 2026-05-07 04:54 | -35.37100 | 150.26508 | 1159 ft | 96 kts | 221° |
| 2026-05-07 04:54 | -35.37593 | 150.25992 | 890 ft | 95 kts | 222° |
| 2026-05-07 04:54 | -35.38110 | 150.25457 | 741 ft | 95 kts | 222° |
| 2026-05-07 04:55 | -35.38625 | 150.24928 | 686 ft | 98 kts | 221° |
| 2026-05-07 04:55 | -35.39126 | 150.24426 | 746 ft | 91 kts | 221° |
| 2026-05-07 04:55 | -35.39635 | 150.23924 | 670 ft | 90 kts | 220° |
| 2026-05-07 04:55 | -35.40131 | 150.23439 | 516 ft | 96 kts | 221° |
| 2026-05-07 04:56 | -35.40658 | 150.22949 | 423 ft | 92 kts | 224° |
| 2026-05-07 04:56 | -35.41086 | 150.22378 | 397 ft | 93 kts | 230° |
| 2026-05-07 04:56 | -35.41525 | 150.21816 | 442 ft | 91 kts | 224° |
| 2026-05-07 04:56 | -35.41992 | 150.21316 | 536 ft | 94 kts | 223° |
| 2026-05-07 04:57 | -35.42464 | 150.20766 | 669 ft | 92 kts | 224° |
| 2026-05-07 04:57 | -35.42905 | 150.20251 | 671 ft | 82 kts | 222° |
| 2026-05-07 04:57 | -35.43317 | 150.19750 | 596 ft | 89 kts | 223° |
| 2026-05-07 04:57 | -35.43773 | 150.19218 | 527 ft | 90 kts | 221° |
| 2026-05-07 04:58 | -35.44231 | 150.18690 | 533 ft | 96 kts | 223° |
| 2026-05-07 04:58 | -35.44691 | 150.18141 | 564 ft | 87 kts | 223° |
| 2026-05-07 04:58 | -35.45129 | 150.17627 | 624 ft | 93 kts | 224° |
| 2026-05-07 04:58 | -35.45625 | 150.17050 | 685 ft | 96 kts | 221° |
| 2026-05-07 04:59 | -35.46085 | 150.16484 | 679 ft | 94 kts | 224° |
| 2026-05-07 04:59 | -35.46537 | 150.15967 | 698 ft | 89 kts | 224° |
| 2026-05-07 04:59 | -35.47012 | 150.15452 | 808 ft | 88 kts | 223° |
| 2026-05-07 04:59 | -35.47458 | 150.14968 | 925 ft | 90 kts | 224° |
| 2026-05-07 05:00 | -35.47929 | 150.14420 | 1058 ft | 92 kts | 223° |
| 2026-05-07 05:00 | -35.48372 | 150.13909 | 1172 ft | 89 kts | 224° |
| 2026-05-07 05:00 | -35.48823 | 150.13395 | 1269 ft | 88 kts | 227° |
| 2026-05-07 05:00 | -35.49349 | 150.12977 | 1273 ft | 92 kts | 207° |
| 2026-05-07 05:01 | -35.49740 | 150.12794 | 1271 ft | 90 kts | 206° |
| 2026-05-07 05:01 | -35.50330 | 150.12495 | 1267 ft | 93 kts | 207° |
| 2026-05-07 05:01 | -35.50921 | 150.12228 | 1265 ft | 90 kts | 205° |
| 2026-05-07 05:01 | -35.51509 | 150.11949 | 1069 ft | 91 kts | 205° |
| 2026-05-07 05:02 | -35.52117 | 150.11651 | 940 ft | 96 kts | 204° |
| 2026-05-07 05:02 | -35.52735 | 150.11376 | 847 ft | 91 kts | 204° |
| 2026-05-07 05:02 | -35.53309 | 150.11128 | 821 ft | 86 kts | 205° |
| 2026-05-07 05:02 | -35.53898 | 150.10874 | 922 ft | 92 kts | 205° |
| 2026-05-07 05:03 | -35.54511 | 150.10609 | 1015 ft | 94 kts | 205° |
| 2026-05-07 05:03 | -35.55116 | 150.10351 | 1063 ft | 90 kts | 203° |
| 2026-05-07 05:03 | -35.55703 | 150.10100 | 922 ft | 93 kts | 206° |
| 2026-05-07 05:03 | -35.56307 | 150.09853 | 786 ft | 87 kts | 203° |
| 2026-05-07 05:04 | -35.56896 | 150.09602 | 724 ft | 93 kts | 203° |
| 2026-05-07 05:04 | -35.57481 | 150.09345 | 793 ft | 84 kts | 206° |
| 2026-05-07 05:04 | -35.58053 | 150.09095 | 765 ft | 91 kts | 204° |
| 2026-05-07 05:04 | -35.58633 | 150.08822 | 761 ft | 90 kts | 205° |
| 2026-05-07 05:05 | -35.59240 | 150.08551 | 750 ft | 95 kts | 204° |
| 2026-05-07 05:05 | -35.59856 | 150.08286 | 765 ft | 89 kts | 205° |
| 2026-05-07 05:05 | -35.60430 | 150.08090 | 745 ft | 87 kts | 204° |
| 2026-05-07 05:05 | -35.61032 | 150.07839 | 923 ft | 92 kts | 204° |
| 2026-05-07 05:06 | -35.61617 | 150.07593 | 951 ft | 83 kts | 204° |
| 2026-05-07 05:06 | -35.62173 | 150.07377 | 894 ft | 88 kts | 205° |
| 2026-05-07 05:06 | -35.62759 | 150.07121 | 821 ft | 95 kts | 204° |
| 2026-05-07 05:06 | -35.63434 | 150.06829 | 911 ft | 107 kts | 202° |
| 2026-05-07 05:07 | -35.64116 | 150.06584 | 1002 ft | 98 kts | 200° |
| 2026-05-07 05:07 | -35.64774 | 150.06368 | 746 ft | 100 kts | 200° |
| 2026-05-07 05:07 | -35.65467 | 150.06127 | 629 ft | 106 kts | 199° |
| 2026-05-07 05:07 | -35.66156 | 150.05869 | 662 ft | 106 kts | 202° |
| 2026-05-07 05:08 | -35.66846 | 150.05615 | 871 ft | 101 kts | 201° |
| 2026-05-07 05:08 | -35.67539 | 150.05360 | 1023 ft | 104 kts | 202° |
| 2026-05-07 05:08 | -35.68238 | 150.05109 | 1148 ft | 100 kts | 202° |
| 2026-05-07 05:08 | -35.68902 | 150.04879 | 1273 ft | 101 kts | 204° |
| 2026-05-07 05:09 | -35.69538 | 150.04615 | 1448 ft | 94 kts | 206° |
| 2026-05-07 05:09 | -35.70133 | 150.04325 | 1589 ft | 87 kts | 207° |
| 2026-05-07 05:09 | -35.70699 | 150.04083 | 1206 ft | 86 kts | 205° |
| 2026-05-07 05:09 | -35.71311 | 150.03799 | 843 ft | 102 kts | 204° |
| 2026-05-07 05:10 | -35.71982 | 150.03478 | 632 ft | 103 kts | 206° |
| 2026-05-07 05:10 | -35.72644 | 150.03194 | 572 ft | 100 kts | 205° |
| 2026-05-07 05:10 | -35.73289 | 150.02935 | 547 ft | 98 kts | 206° |
| 2026-05-07 05:10 | -35.73827 | 150.02440 | 594 ft | 99 kts | 246° |
| 2026-05-07 05:11 | -35.73585 | 150.01676 | 669 ft | 99 kts | 309° |
| 2026-05-07 05:11 | -35.72932 | 150.01188 | 669 ft | 116 kts | 311° |
| 2026-05-07 05:11 | -35.72364 | 150.00516 | 857 ft | 105 kts | 306° |
| 2026-05-07 05:11 | -35.71932 | 149.99972 | 973 ft | 84 kts | 307° |
| 2026-05-07 05:12 | -35.71564 | 149.99552 | 1051 ft | 86 kts | 307° |
| 2026-05-07 05:12 | -35.71065 | 149.98956 | 1028 ft | 106 kts | 304° |
| 2026-05-07 05:12 | -35.70577 | 149.98345 | 1052 ft | 94 kts | 302° |
| 2026-05-07 05:12 | -35.70125 | 149.97746 | 1210 ft | 99 kts | 304° |
| 2026-05-07 05:13 | -35.69612 | 149.97183 | 1437 ft | 99 kts | 308° |
| 2026-05-07 05:13 | -35.69091 | 149.96632 | 1734 ft | 93 kts | 311° |
| 2026-05-07 05:13 | -35.68663 | 149.96166 | 2275 ft | 77 kts | 301° |
| 2026-05-07 05:13 | -35.68175 | 149.95652 | 2803 ft | 97 kts | 306° |
| 2026-05-07 05:14 | -35.67706 | 149.95232 | 3160 ft | 75 kts | 299° |
| 2026-05-07 05:14 | -35.67290 | 149.94792 | 3130 ft | 83 kts | 299° |
| 2026-05-07 05:14 | -35.66862 | 149.94293 | 3160 ft | 90 kts | 297° |
| 2026-05-07 05:14 | -35.66411 | 149.93763 | 3173 ft | 87 kts | 298° |
| 2026-05-07 05:15 | -35.65969 | 149.93230 | 3172 ft | 91 kts | 296° |
| 2026-05-07 05:15 | -35.65495 | 149.92721 | 3155 ft | 91 kts | 299° |
| 2026-05-07 05:15 | -35.64998 | 149.92216 | 3165 ft | 91 kts | 300° |
| 2026-05-07 05:15 | -35.64522 | 149.91705 | 3164 ft | 90 kts | 296° |
| 2026-05-07 05:16 | -35.64047 | 149.91150 | 3188 ft | 99 kts | 296° |
| 2026-05-07 05:16 | -35.63565 | 149.90541 | 3270 ft | 100 kts | 296° |
| 2026-05-07 05:16 | -35.63082 | 149.89916 | 3341 ft | 101 kts | 297° |
| 2026-05-07 05:16 | -35.62612 | 149.89296 | 3469 ft | 98 kts | 296° |
| 2026-05-07 05:17 | -35.62141 | 149.88678 | 3609 ft | 98 kts | 295° |
| 2026-05-07 05:17 | -35.61694 | 149.88095 | 3726 ft | 93 kts | 296° |
| 2026-05-07 05:17 | -35.61276 | 149.87504 | 3800 ft | 91 kts | 298° |
| 2026-05-07 05:17 | -35.60868 | 149.86916 | 3813 ft | 91 kts | 295° |
| 2026-05-07 05:18 | -35.60460 | 149.86346 | 3766 ft | 89 kts | 298° |
| 2026-05-07 05:18 | -35.60004 | 149.85812 | 3560 ft | 93 kts | 301° |
| 2026-05-07 05:18 | -35.59514 | 149.85300 | 3290 ft | 93 kts | 302° |
| 2026-05-07 05:18 | -35.59034 | 149.84808 | 3118 ft | 87 kts | 299° |
| 2026-05-07 05:19 | -35.58596 | 149.84296 | 3026 ft | 89 kts | 300° |
| 2026-05-07 05:19 | -35.58172 | 149.83723 | 2936 ft | 89 kts | 297° |
| 2026-05-07 05:19 | -35.57764 | 149.83136 | 2906 ft | 93 kts | 299° |
| 2026-05-07 05:19 | -35.57280 | 149.82579 | 2921 ft | 102 kts | 320° |
| 2026-05-07 05:20 | -35.56535 | 149.82534 | 2939 ft | 113 kts | 3° |
| 2026-05-07 05:20 | -35.55758 | 149.82728 | 2919 ft | 116 kts | 1° |
| 2026-05-07 05:20 | -35.54959 | 149.82936 | 2877 ft | 117 kts | 4° |
| 2026-05-07 05:20 | -35.54207 | 149.83269 | 2815 ft | 116 kts | 16° |
| 2026-05-07 05:21 | -35.53457 | 149.83727 | 2805 ft | 123 kts | 18° |
| 2026-05-07 05:21 | -35.52122 | 149.84954 | 2823 ft | 122 kts | 35° |
| 2026-05-07 05:21 | -35.51423 | 149.85504 | 2856 ft | 114 kts | 12° |
| 2026-05-07 05:22 | -35.50694 | 149.85790 | 2867 ft | 108 kts | 359° |
| 2026-05-07 05:22 | -35.49972 | 149.85932 | 2855 ft | 103 kts | 356° |
| 2026-05-07 05:22 | -35.49246 | 149.85992 | 2846 ft | 106 kts | 347° |
| 2026-05-07 05:22 | -35.48516 | 149.86037 | 2874 ft | 106 kts | 349° |
| 2026-05-07 05:23 | -35.47774 | 149.86050 | 2906 ft | 107 kts | 349° |
| 2026-05-07 05:23 | -35.47060 | 149.86048 | 2852 ft | 101 kts | 346° |
| 2026-05-07 05:23 | -35.46320 | 149.86059 | 2819 ft | 112 kts | 350° |
| 2026-05-07 05:23 | -35.45536 | 149.86197 | 2819 ft | 111 kts | 0° |
| 2026-05-07 05:24 | -35.44798 | 149.86391 | 2833 ft | 107 kts | 5° |
| 2026-05-07 05:24 | -35.44068 | 149.86562 | 2836 ft | 110 kts | 1° |
| 2026-05-07 05:24 | -35.43315 | 149.86801 | 2825 ft | 114 kts | 3° |
| 2026-05-07 05:24 | -35.42565 | 149.87030 | 2855 ft | 110 kts | 5° |
| 2026-05-07 05:25 | -35.41810 | 149.87274 | 2920 ft | 114 kts | 9° |
| 2026-05-07 05:25 | -35.41094 | 149.87651 | 2931 ft | 115 kts | 14° |
| 2026-05-07 05:25 | -35.40407 | 149.88129 | 2870 ft | 115 kts | 30° |
| 2026-05-07 05:25 | -35.39861 | 149.88775 | 2869 ft | 102 kts | 45° |
| 2026-05-07 05:26 | -35.39358 | 149.89441 | 2927 ft | 108 kts | 49° |
| 2026-05-07 05:26 | -35.38946 | 149.90209 | 2971 ft | 111 kts | 55° |
| 2026-05-07 05:26 | -35.38441 | 149.90890 | 2917 ft | 103 kts | 44° |
| 2026-05-07 05:26 | -35.37943 | 149.91502 | 2856 ft | 101 kts | 45° |
| 2026-05-07 05:27 | -35.37468 | 149.92106 | 2861 ft | 95 kts | 46° |
| 2026-05-07 05:27 | -35.37019 | 149.92711 | 2852 ft | 98 kts | 48° |
| 2026-05-07 05:27 | -35.36554 | 149.93307 | 2847 ft | 96 kts | 44° |
| 2026-05-07 05:27 | -35.36095 | 149.93893 | 2821 ft | 95 kts | 43° |
| 2026-05-07 05:28 | -35.35655 | 149.94470 | 2788 ft | 90 kts | 41° |
| 2026-05-07 05:28 | -35.35219 | 149.95033 | 2784 ft | 92 kts | 40° |
| 2026-05-07 05:28 | -35.34773 | 149.95593 | 2727 ft | 92 kts | 38° |
| 2026-05-07 05:28 | -35.34320 | 149.96138 | 2674 ft | 89 kts | 38° |
| 2026-05-07 05:29 | -35.33884 | 149.96674 | 2654 ft | 88 kts | 40° |
| 2026-05-07 05:29 | -35.33453 | 149.97215 | 2596 ft | 89 kts | 39° |
| 2026-05-07 05:29 | -35.33034 | 149.97760 | 2606 ft | 86 kts | 41° |
| 2026-05-07 05:29 | -35.32596 | 149.98302 | 2631 ft | 92 kts | 39° |
| 2026-05-07 05:30 | -35.32147 | 149.98846 | 2638 ft | 89 kts | 39° |
| 2026-05-07 05:30 | -35.31697 | 149.99383 | 2620 ft | 94 kts | 39° |
| 2026-05-07 05:30 | -35.31237 | 149.99931 | 2647 ft | 91 kts | 38° |
| 2026-05-07 05:30 | -35.30786 | 150.00473 | 2661 ft | 90 kts | 38° |
| 2026-05-07 05:31 | -35.30350 | 150.01012 | 2660 ft | 89 kts | 39° |
| 2026-05-07 05:31 | -35.29922 | 150.01558 | 2674 ft | 91 kts | 41° |
| 2026-05-07 05:31 | -35.29488 | 150.02130 | 2728 ft | 92 kts | 43° |
| 2026-05-07 05:31 | -35.29051 | 150.02707 | 2745 ft | 92 kts | 47° |
| 2026-05-07 05:32 | -35.28649 | 150.03326 | 2748 ft | 94 kts | 52° |
| 2026-05-07 05:32 | -35.28270 | 150.03958 | 2771 ft | 92 kts | 46° |
| 2026-05-07 05:32 | -35.27847 | 150.04531 | 2727 ft | 89 kts | 39° |
| 2026-05-07 05:32 | -35.27405 | 150.05058 | 2706 ft | 90 kts | 38° |
| 2026-05-07 05:33 | -35.26948 | 150.05584 | 2665 ft | 91 kts | 35° |
| 2026-05-07 05:33 | -35.26502 | 150.06120 | 2691 ft | 89 kts | 37° |
| 2026-05-07 05:33 | -35.26055 | 150.06650 | 2795 ft | 89 kts | 37° |
| 2026-05-07 05:33 | -35.25617 | 150.07211 | 2826 ft | 90 kts | 37° |
| 2026-05-07 05:34 | -35.25190 | 150.07741 | 2769 ft | 87 kts | 38° |
| 2026-05-07 05:34 | -35.24733 | 150.08263 | 2694 ft | 89 kts | 37° |
| 2026-05-07 05:34 | -35.24301 | 150.08790 | 2687 ft | 88 kts | 38° |
| 2026-05-07 05:34 | -35.23871 | 150.09310 | 2708 ft | 88 kts | 38° |
| 2026-05-07 05:35 | -35.23425 | 150.09818 | 2730 ft | 88 kts | 38° |
| 2026-05-07 05:35 | -35.22961 | 150.10328 | 2727 ft | 90 kts | 33° |
| 2026-05-07 05:35 | -35.22491 | 150.10818 | 2813 ft | 89 kts | 33° |
| 2026-05-07 05:35 | -35.22026 | 150.11315 | 2989 ft | 89 kts | 35° |
| 2026-05-07 05:36 | -35.21557 | 150.11822 | 3078 ft | 90 kts | 34° |
| 2026-05-07 05:36 | -35.21089 | 150.12336 | 3039 ft | 91 kts | 34° |
| 2026-05-07 05:36 | -35.20625 | 150.12849 | 2994 ft | 90 kts | 33° |
| 2026-05-07 05:36 | -35.20170 | 150.13348 | 3075 ft | 89 kts | 31° |
| 2026-05-07 05:37 | -35.19708 | 150.13859 | 2996 ft | 89 kts | 33° |
| 2026-05-07 05:37 | -35.19253 | 150.14372 | 2937 ft | 90 kts | 32° |
| 2026-05-07 05:37 | -35.18798 | 150.14898 | 2908 ft | 90 kts | 32° |
| 2026-05-07 05:37 | -35.18323 | 150.15401 | 2882 ft | 90 kts | 31° |
| 2026-05-07 05:38 | -35.17853 | 150.15911 | 2847 ft | 88 kts | 31° |
| 2026-05-07 05:38 | -35.17403 | 150.16413 | 2809 ft | 89 kts | 31° |
| 2026-05-07 05:38 | -35.16925 | 150.16918 | 2732 ft | 93 kts | 30° |
| 2026-05-07 05:38 | -35.16447 | 150.17448 | 2692 ft | 91 kts | 33° |
| 2026-05-07 05:39 | -35.15937 | 150.17938 | 2654 ft | 93 kts | 29° |
| 2026-05-07 05:39 | -35.15420 | 150.18416 | 2649 ft | 95 kts | 29° |
| 2026-05-07 05:39 | -35.14912 | 150.18896 | 2817 ft | 89 kts | 30° |
| 2026-05-07 05:39 | -35.14427 | 150.19352 | 2982 ft | 89 kts | 29° |
| 2026-05-07 05:40 | -35.13943 | 150.19812 | 3090 ft | 87 kts | 30° |
| 2026-05-07 05:40 | -35.13459 | 150.20271 | 3109 ft | 91 kts | 29° |
| 2026-05-07 05:40 | -35.12955 | 150.20756 | 3051 ft | 92 kts | 28° |
| 2026-05-07 05:40 | -35.12448 | 150.21243 | 2965 ft | 93 kts | 28° |
| 2026-05-07 05:41 | -35.11947 | 150.21698 | 2877 ft | 85 kts | 29° |
| 2026-05-07 05:41 | -35.11464 | 150.22127 | 2748 ft | 90 kts | 29° |
| 2026-05-07 05:41 | -35.10982 | 150.22583 | 2702 ft | 89 kts | 34° |
| 2026-05-07 05:41 | -35.10480 | 150.23070 | 2945 ft | 95 kts | 32° |
| 2026-05-07 05:42 | -35.09987 | 150.23592 | 3159 ft | 92 kts | 36° |
| 2026-05-07 05:42 | -35.09534 | 150.24073 | 3261 ft | 82 kts | 32° |
| 2026-05-07 05:42 | -35.09107 | 150.24510 | 3013 ft | 79 kts | 31° |
| 2026-05-07 05:42 | -35.08670 | 150.24923 | 2877 ft | 79 kts | 32° |
| 2026-05-07 05:43 | -35.08264 | 150.25375 | 2738 ft | 77 kts | 35° |
| 2026-05-07 05:43 | -35.07897 | 150.25830 | 2551 ft | 74 kts | 36° |
| 2026-05-07 05:43 | -35.07534 | 150.26284 | 2375 ft | 76 kts | 37° |
| 2026-05-07 05:43 | -35.07121 | 150.26689 | 2260 ft | 76 kts | 20° |
| 2026-05-07 05:44 | -35.06682 | 150.27025 | 2191 ft | 80 kts | 18° |
| 2026-05-07 05:44 | -35.06184 | 150.27392 | 2136 ft | 82 kts | 21° |
| 2026-05-07 05:44 | -35.05703 | 150.27743 | 2113 ft | 82 kts | 19° |
| 2026-05-07 05:44 | -35.05206 | 150.28096 | 2111 ft | 87 kts | 19° |
| 2026-05-07 05:45 | -35.04675 | 150.28473 | 2126 ft | 89 kts | 20° |
| 2026-05-07 05:45 | -35.04142 | 150.28852 | 2098 ft | 87 kts | 21° |
| 2026-05-07 05:45 | -35.03610 | 150.29238 | 2088 ft | 91 kts | 22° |
| 2026-05-07 05:45 | -35.03075 | 150.29639 | 2059 ft | 91 kts | 20° |
| 2026-05-07 05:46 | -35.02519 | 150.30015 | 1987 ft | 91 kts | 18° |
| 2026-05-07 05:46 | -35.01979 | 150.30380 | 1906 ft | 87 kts | 19° |
| 2026-05-07 05:46 | -35.01454 | 150.30769 | 1989 ft | 89 kts | 19° |
| 2026-05-07 05:46 | -35.00929 | 150.31164 | 2022 ft | 90 kts | 17° |
| 2026-05-07 05:47 | -35.00392 | 150.31565 | 2033 ft | 89 kts | 17° |
| 2026-05-07 05:47 | -34.99860 | 150.31936 | 2020 ft | 89 kts | 21° |
| 2026-05-07 05:47 | -34.99334 | 150.32364 | 2018 ft | 93 kts | 27° |
| 2026-05-07 05:47 | -34.98811 | 150.32845 | 2036 ft | 95 kts | 28° |
| 2026-05-07 05:48 | -34.98293 | 150.33329 | 2035 ft | 91 kts | 26° |
| 2026-05-07 05:48 | -34.97796 | 150.33784 | 2035 ft | 88 kts | 27° |
| 2026-05-07 05:48 | -34.97290 | 150.34225 | 2042 ft | 90 kts | 26° |
| 2026-05-07 05:48 | -34.96782 | 150.34677 | 1889 ft | 92 kts | 26° |
| 2026-05-07 05:49 | -34.96270 | 150.35118 | 1524 ft | 87 kts | 24° |
| 2026-05-07 05:49 | -34.95767 | 150.35520 | 1134 ft | 87 kts | 23° |
| 2026-05-07 05:49 | -34.95254 | 150.35905 | 868 ft | 87 kts | 24° |
| 2026-05-07 05:49 | -34.94727 | 150.36290 | 761 ft | 94 kts | 23° |
| 2026-05-07 05:50 | -34.94178 | 150.36704 | 777 ft | 92 kts | 21° |
| 2026-05-07 05:50 | -34.93637 | 150.37119 | 781 ft | 91 kts | 22° |
| 2026-05-07 05:50 | -34.93093 | 150.37498 | 780 ft | 92 kts | 23° |
| 2026-05-07 05:50 | -34.92549 | 150.37912 | 776 ft | 93 kts | 28° |
| 2026-05-07 05:51 | -34.92036 | 150.38376 | 786 ft | 88 kts | 36° |
| 2026-05-07 05:51 | -34.91806 | 150.39033 | 783 ft | 85 kts | 93° |
| 2026-05-07 05:51 | -34.91883 | 150.39719 | 789 ft | 83 kts | 108° |
| 2026-05-07 05:51 | -34.92018 | 150.40445 | 1018 ft | 91 kts | 109° |
| 2026-05-07 05:52 | -34.92186 | 150.41147 | 1284 ft | 83 kts | 110° |
| 2026-05-07 05:52 | -34.92335 | 150.41848 | 1268 ft | 88 kts | 109° |
| 2026-05-07 05:52 | -34.92469 | 150.42564 | 1247 ft | 89 kts | 109° |
| 2026-05-07 05:52 | -34.92609 | 150.43322 | 1245 ft | 92 kts | 108° |
| 2026-05-07 05:53 | -34.92598 | 150.44086 | 1228 ft | 95 kts | 68° |
| 2026-05-07 05:53 | -34.92589 | 150.44857 | 1241 ft | 90 kts | 115° |
| 2026-05-07 05:53 | -34.92801 | 150.45582 | 1242 ft | 93 kts | 117° |
| 2026-05-07 05:53 | -34.93054 | 150.46368 | 1442 ft | 114 kts | 124° |
| 2026-05-07 05:54 | -34.93342 | 150.47335 | 1682 ft | 122 kts | 118° |
| 2026-05-07 05:54 | -34.93649 | 150.48316 | 1906 ft | 126 kts | 122° |
| 2026-05-07 05:54 | -34.93966 | 150.49307 | 2104 ft | 124 kts | 122° |
| 2026-05-07 05:54 | -34.94178 | 150.49971 | 2139 ft | 124 kts | 122° |
| 2026-05-07 05:55 | -34.94494 | 150.50928 | 1991 ft | 121 kts | 127° |
| 2026-05-07 05:55 | -34.95053 | 150.52044 | 1685 ft | 112 kts | 137° |
| 2026-05-07 05:55 | -34.95343 | 150.52549 | 1503 ft | 108 kts | 141° |
| 2026-05-07 05:55 | -34.95603 | 150.53366 | 1492 ft | 100 kts | 111° |
| 2026-05-07 05:56 | -34.95676 | 150.54167 | 1584 ft | 91 kts | 108° |
| 2026-05-07 05:56 | -34.95749 | 150.54941 | 1633 ft | 94 kts | 109° |
| 2026-05-07 05:56 | -34.95815 | 150.55727 | 1530 ft | 92 kts | 100° |
| 2026-05-07 05:56 | -34.95525 | 150.56387 | 1311 ft | 86 kts | 25° |
| 2026-05-07 05:57 | -34.95056 | 150.56435 | 1176 ft | 55 kts | 313° |
| 2026-05-07 05:57 | -34.94933 | 150.56134 | 1061 ft | 33 kts | 255° |
| 2026-05-07 05:57 | -34.94942 | 150.55883 | 938 ft | 29 kts | 268° |
| 2026-05-07 05:57 | -34.94890 | 150.55647 | 845 ft | 29 kts | 268° |
| 2026-05-07 05:58 | -34.94843 | 150.55391 | 771 ft | 33 kts | 265° |
| 2026-05-07 05:58 | -34.94813 | 150.55122 | 645 ft | 30 kts | 263° |
| 2026-05-07 05:58 | -34.94800 | 150.54904 | 506 ft | 21 kts | 264° |
| 2026-05-07 05:58 | -34.94794 | 150.54773 | 409 ft | 10 kts | 261° |
| 2026-05-07 05:59 | -34.94793 | 150.54726 | 384 ft | 3 kts | 260° |
| 2026-05-07 05:59 | -34.94793 | 150.54707 | 366 ft | 0 kts | 260° |
| 2026-05-07 05:59 | -34.94792 | 150.54698 | 361 ft | 4 kts | 329° |
| 2026-05-07 05:59 | -34.94761 | 150.54679 | 364 ft | 5 kts | 339° |
| 2026-05-07 06:00 | -34.94733 | 150.54662 | 366 ft | 5 kts | 339° |
| 2026-05-07 06:00 | -34.94701 | 150.54658 | 364 ft | 5 kts | 66° |
| 2026-05-07 06:00 | -34.94689 | 150.54697 | 363 ft | 4 kts | 66° |
| 2026-05-07 06:00 | -34.94679 | 150.54727 | 361 ft | 3 kts | 65° |
| 2026-05-07 06:01 | -34.94664 | 150.54747 | 367 ft | 5 kts | 352° |
| 2026-05-07 06:01 | -34.94647 | 150.54742 | 362 ft | 1 kts | 334° |
| 2026-05-07 06:01 | -34.94647 | 150.54738 | 359 ft | 0 kts | 337° |
| 2026-05-07 06:01 | -34.94644 | 150.54737 | 356 ft | 0 kts | 335° |